createdAt,value
2018-09-10T00:00:15.172Z,2.27
2018-09-10T00:05:09.840Z,2.27
2018-09-10T00:10:04.510Z,2.40
2018-09-10T00:14:59.498Z,2.37
2018-09-10T00:19:54.148Z,2.40
2018-09-10T00:24:49.168Z,2.20
2018-09-10T00:29:43.916Z,2.40
2018-09-10T00:34:38.470Z,2.37
2018-09-10T00:39:33.154Z,2.17
2018-09-10T00:44:27.628Z,2.10
2018-09-10T00:49:22.392Z,2.20
2018-09-10T00:54:16.982Z,2.23
2018-09-10T00:59:11.666Z,2.40
2018-09-10T01:04:06.264Z,2.07
2018-09-10T01:09:01.564Z,2.37
2018-09-10T01:13:56.384Z,2.40
2018-09-10T01:18:50.939Z,2.23
2018-09-10T01:23:45.776Z,2.33
2018-09-10T01:28:40.254Z,2.43
2018-09-10T01:33:40.383Z,2.30
2018-09-10T01:38:35.017Z,2.40
2018-09-10T01:43:29.620Z,2.47
2018-09-10T01:48:24.424Z,2.20
2018-09-10T01:53:19.649Z,2.20
2018-09-10T01:58:14.348Z,2.30
2018-09-10T02:03:08.851Z,2.40
2018-09-10T02:08:03.568Z,2.67
2018-09-10T02:12:58.049Z,2.20
2018-09-10T02:17:53.032Z,2.30
2018-09-10T02:22:47.612Z,2.37
2018-09-10T02:27:42.444Z,2.50
2018-09-10T02:32:37.487Z,2.43
2018-09-10T02:37:32.307Z,2.40
2018-09-10T02:42:26.766Z,2.50
2018-09-10T02:47:21.394Z,2.40
2018-09-10T02:52:15.898Z,2.60
2018-09-10T02:57:12.464Z,2.40
2018-09-10T03:02:07.239Z,2.67
2018-09-10T03:07:02.213Z,2.73
2018-09-10T03:11:56.858Z,2.80
2018-09-10T03:16:52.026Z,3.10
2018-09-10T03:21:46.828Z,2.60
2018-09-10T03:26:41.686Z,2.70
2018-09-10T03:31:36.657Z,2.70
2018-09-10T03:36:31.365Z,2.80
2018-09-10T03:41:26.184Z,2.77
2018-09-10T03:46:20.648Z,2.50
2018-09-10T03:51:15.168Z,2.63
2018-09-10T03:56:09.896Z,2.70
2018-09-10T04:01:04.794Z,2.43
2018-09-10T04:05:59.422Z,2.60
2018-09-10T04:10:54.860Z,3.10
2018-09-10T04:15:50.012Z,2.60
2018-09-10T04:20:44.689Z,2.70
2018-09-10T04:25:39.232Z,2.93
2018-09-10T04:30:33.750Z,2.50
2018-09-10T04:35:28.199Z,2.70
2018-09-10T04:40:23.189Z,2.77
2018-09-10T04:45:18.029Z,2.70
2018-09-10T04:50:12.694Z,2.90
2018-09-10T04:55:07.454Z,3.03
2018-09-10T05:00:01.980Z,2.50
2018-09-10T05:04:56.540Z,2.33
2018-09-10T05:09:51.138Z,3.13
2018-09-10T05:14:45.767Z,2.83
2018-09-10T05:19:40.242Z,2.93
2018-09-10T05:24:34.712Z,3.13
2018-09-10T05:29:29.181Z,3.00
2018-09-10T05:34:23.699Z,3.10
2018-09-10T05:39:18.212Z,3.10
2018-09-10T05:44:12.793Z,2.50
2018-09-10T05:49:07.258Z,3.47
2018-09-10T05:54:01.785Z,3.67
2018-09-10T05:58:56.296Z,3.90
2018-09-10T06:03:50.740Z,3.40
2018-09-10T06:08:45.461Z,3.93
2018-09-10T06:13:40.059Z,3.47
2018-09-10T06:18:34.518Z,3.50
2018-09-10T06:23:29.107Z,3.50
2018-09-10T06:28:23.618Z,3.10
2018-09-10T06:33:18.369Z,3.30
2018-09-10T06:38:12.929Z,3.53
2018-09-10T06:43:07.832Z,3.03
2018-09-10T06:48:02.555Z,3.43
2018-09-10T06:52:57.569Z,3.20
2018-09-10T06:57:51.998Z,3.73
2018-09-10T07:02:46.450Z,4.07
2018-09-10T07:07:41.458Z,4.20
2018-09-10T07:12:36.154Z,3.80
2018-09-10T08:13:09.223Z,4.13
2018-09-10T08:18:13.660Z,3.98
2018-09-10T08:23:12.420Z,3.90
2018-09-10T08:44:42.714Z,3.23
2018-09-10T08:49:37.691Z,4.00
2018-09-10T08:54:32.762Z,3.20
2018-09-10T08:59:27.548Z,3.37
2018-09-10T09:04:23.810Z,3.90
2018-09-10T09:09:18.885Z,3.50
2018-09-10T09:14:14.106Z,3.40
2018-09-10T09:19:08.976Z,3.53
2018-09-10T09:24:03.801Z,3.87
2018-09-10T09:28:58.696Z,3.23
2018-09-10T09:33:53.436Z,3.63
2018-09-10T09:38:53.364Z,3.87
2018-09-10T09:43:53.468Z,3.27
2018-09-10T09:49:00.299Z,3.63
2018-09-10T09:53:55.094Z,3.67
2018-09-10T09:58:49.978Z,3.23
2018-09-10T10:03:49.910Z,3.20
2018-09-10T10:08:44.642Z,3.10
2018-09-10T10:13:39.379Z,3.63
2018-09-10T10:18:34.098Z,3.07
2018-09-10T10:23:29.240Z,4.00
2018-09-10T10:28:23.964Z,3.57
2018-09-10T10:33:18.832Z,3.07
2018-09-10T10:38:13.622Z,3.87
2018-09-10T10:43:08.332Z,3.87
2018-09-10T10:48:03.096Z,4.70
2018-09-10T10:52:57.833Z,4.67
2018-09-10T10:57:52.597Z,4.07
2018-09-10T11:02:47.443Z,4.07
2018-09-10T11:07:42.635Z,4.80
2018-09-10T11:12:37.307Z,4.83
2018-09-10T11:17:32.261Z,4.43
2018-09-10T11:22:27.281Z,4.80
2018-09-10T11:27:22.308Z,4.90
2018-09-10T11:32:17.034Z,4.33
2018-09-10T11:37:11.970Z,4.00
2018-09-10T11:42:07.063Z,4.37
2018-09-10T11:47:02.342Z,4.57
2018-09-10T11:51:57.086Z,4.30
2018-09-10T11:56:51.800Z,4.20
2018-09-10T12:01:46.577Z,3.80
2018-09-10T12:06:41.647Z,3.47
2018-09-10T12:11:36.396Z,3.90
2018-09-10T12:16:31.114Z,3.60
2018-09-10T12:21:25.882Z,4.10
2018-09-10T12:26:20.792Z,3.53
2018-09-10T12:31:15.502Z,3.57
2018-09-10T12:36:10.314Z,3.60
2018-09-10T12:41:05.052Z,3.30
2018-09-10T12:46:00.059Z,2.90
2018-09-10T12:50:54.997Z,3.33
2018-09-10T12:55:50.139Z,3.33
2018-09-10T13:00:44.932Z,2.93
2018-09-10T13:05:39.939Z,2.83
2018-09-10T13:10:34.867Z,3.60
2018-09-10T13:15:29.831Z,3.20
2018-09-10T13:20:25.264Z,3.00
2018-09-10T13:25:19.962Z,3.20
2018-09-10T13:30:14.795Z,2.90
2018-09-10T13:35:09.723Z,3.70
2018-09-10T13:40:04.548Z,3.43
2018-09-10T13:44:59.552Z,3.07
2018-09-10T13:49:54.993Z,3.50
2018-09-10T13:54:50.126Z,3.07
2018-09-10T13:59:45.019Z,4.00
2018-09-10T14:04:40.445Z,3.23
2018-09-10T14:09:35.332Z,3.25
2018-09-10T14:14:30.283Z,2.87
2018-09-10T14:19:25.171Z,3.10
2018-09-10T14:24:20.034Z,3.07
2018-09-10T14:29:15.717Z,2.60
2018-09-10T14:34:10.768Z,3.13
2018-09-10T14:39:07.330Z,2.90
2018-09-10T14:44:02.066Z,2.90
2018-09-10T14:48:56.920Z,2.83
2018-09-10T14:53:52.018Z,2.73
2018-09-10T14:58:46.635Z,2.63
2018-09-10T15:03:41.106Z,2.90
2018-09-10T15:08:35.856Z,2.93
2018-09-10T15:13:30.310Z,2.63
2018-09-10T15:18:24.896Z,2.47
2018-09-10T15:23:20.411Z,2.80
2018-09-10T15:28:14.862Z,2.13
2018-09-10T15:33:09.412Z,2.70
2018-09-10T15:38:04.215Z,2.57
2018-09-10T15:42:58.728Z,2.73
2018-09-10T15:47:53.202Z,2.80
2018-09-10T15:52:47.837Z,3.10
2018-09-10T15:57:42.461Z,2.20
2018-09-10T16:02:37.648Z,2.50
2018-09-10T16:07:32.122Z,2.67
2018-09-10T16:12:26.841Z,2.63
2018-09-10T16:17:21.465Z,2.93
2018-09-10T16:22:16.862Z,2.40
2018-09-10T16:27:11.368Z,3.00
2018-09-10T16:32:05.930Z,2.70
2018-09-10T16:37:00.560Z,2.50
2018-09-10T16:41:55.076Z,2.47
2018-09-10T16:46:49.726Z,2.60
2018-09-10T16:51:44.247Z,2.33
2018-09-10T16:56:40.067Z,3.17
2018-09-10T17:01:34.604Z,2.57
2018-09-10T17:06:29.096Z,4.40
2018-09-10T17:11:24.249Z,2.83
2018-09-10T17:16:18.842Z,3.63
2018-09-10T17:21:13.741Z,2.67
2018-09-10T17:26:08.283Z,3.00
2018-09-10T17:31:03.017Z,3.10
2018-09-10T17:35:57.538Z,2.77
2018-09-10T17:40:52.400Z,2.73
2018-09-10T17:45:47.374Z,3.07
2018-09-10T17:50:42.470Z,2.87
2018-09-10T17:55:37.147Z,3.37
2018-09-10T18:00:31.842Z,3.20
2018-09-10T18:05:26.911Z,3.40
2018-09-10T18:10:21.963Z,3.87
2018-09-10T18:15:16.443Z,3.80
2018-09-10T18:20:10.903Z,3.50
2018-09-10T18:25:05.933Z,3.87
2018-09-10T18:30:01.361Z,3.23
2018-09-10T18:34:55.788Z,3.43
2018-09-10T18:39:50.399Z,4.00
2018-09-10T18:44:44.932Z,3.37
2018-09-10T18:49:39.928Z,3.33
2018-09-10T18:54:34.404Z,3.70
2018-09-10T18:59:29.050Z,4.20
2018-09-10T19:04:23.493Z,4.13
2018-09-10T19:09:18.176Z,3.90
2018-09-10T19:14:13.118Z,3.97
2018-09-10T19:19:07.613Z,3.87
2018-09-10T19:24:02.094Z,3.97
2018-09-10T19:28:56.923Z,4.20
2018-09-10T19:33:51.468Z,4.13
2018-09-10T19:38:46.090Z,4.27
2018-09-10T19:43:48.152Z,4.70
2018-09-10T19:48:53.694Z,5.07
2018-09-10T19:53:49.781Z,5.13
2018-09-10T19:58:44.604Z,4.03
2018-09-10T20:03:39.207Z,4.60
2018-09-10T20:08:33.825Z,4.20
2018-09-10T20:13:28.271Z,4.53
2018-09-10T20:18:55.812Z,3.90
2018-09-10T20:23:50.821Z,4.80
2018-09-10T20:28:45.697Z,4.53
2018-09-10T20:33:45.913Z,4.20
2018-09-10T20:38:41.383Z,4.50
2018-09-10T20:43:36.132Z,3.73
2018-09-10T20:48:30.918Z,4.00
2018-09-10T20:53:25.981Z,3.80
2018-09-10T20:58:20.716Z,4.47
2018-09-10T21:03:15.556Z,4.07
2018-09-10T21:08:10.229Z,4.27
2018-09-10T21:13:04.944Z,4.37
2018-09-10T21:17:59.828Z,4.00
2018-09-10T21:22:55.056Z,4.13
2018-09-10T21:27:49.726Z,4.30
2018-09-10T21:32:44.227Z,4.13
2018-09-10T21:37:39.043Z,5.07
2018-09-10T21:42:33.568Z,4.30
2018-09-10T21:47:28.180Z,4.33
2018-09-10T21:52:22.692Z,4.13
2018-09-10T21:57:17.383Z,4.10
2018-09-10T22:02:11.978Z,3.67
2018-09-10T22:07:06.906Z,3.80
2018-09-10T22:12:02.468Z,4.07
2018-09-10T22:16:57.013Z,4.30
2018-09-10T22:21:51.848Z,3.50
2018-09-10T22:26:46.347Z,3.97
2018-09-10T22:31:41.210Z,3.70
2018-09-10T22:36:35.856Z,4.10
2018-09-10T22:41:30.487Z,3.90
2018-09-10T22:46:25.043Z,3.97
2018-09-10T22:51:20.431Z,4.00
2018-09-10T22:56:14.920Z,4.13
2018-09-10T23:01:09.737Z,3.60
2018-09-10T23:06:04.447Z,4.13
2018-09-10T23:10:59.011Z,3.40
2018-09-10T23:15:53.583Z,3.60
2018-09-10T23:20:48.140Z,3.37
2018-09-10T23:25:42.681Z,3.17
2018-09-10T23:30:37.166Z,3.63
2018-09-10T23:35:31.708Z,3.37
2018-09-10T23:40:26.219Z,3.57
2018-09-10T23:45:21.297Z,3.43
2018-09-10T23:50:15.857Z,3.27
2018-09-10T23:55:10.538Z,3.50
